Pilot Butte, Canada
Current Conditions -  °F | °C
As of 7:00 AM on Saturday 25 Oct 2014 (Local Time) from CYQR Reporting Station
Few Clouds Few Clouds  
Wind Chill: 27°   Ceiling: Unl
Heat Index: 27°   Visibility: 15mi
Dew Point: 25°   Wind: 2mph
Humidity: 93%   Direction: NA
Pressure: 30.08"   Gusts: NA
Location:  50.48°N, 104.42°W
Report Text: CYQR 251300Z VRB02KT 15SM FEW250 M03/M04 A3008 RMK CI1 SLP213
Loading
Personal Weather Stations






























Interactive Weather Map New forecast layout! Learn more

10-Day Weather Forecast

Advertisements
Track Severe Weather on mobile